Archival Weather

Chicago O'Hare International

Chicago, Illinois (KORD)

Report from: Tuesday, February 27, 2024 9:41 AM CST
Current time: Wednesday, May 29, 2024 6:20 PM CDT

Current weather – Weather history – Daily summaries
Weather forecast

Temperature15.6°C (60.1°F)
Dew point12.8°C (55.0°F)
Winds 12 kts (6.2 m/s, 13.8 mph) South-Southwest (210°)
Wind gusts 23 kts (11.8 m/s, 26.5 mph)
Peak wind 27 kts (13.9 m/s, 31.1 mph) South (190°) at 15:02
Visibility8 mi. (12.9 km)
Clouds Scattered clouds 1,200 ft. (366 m)
Altimeter29.38 in.Hg (995 mB)
Relative humidity83 %
Density altitude902 ft. (275 m)
Remarks System requires maintenance
Automated weather observing station with precipitation discriminator
Flight conditions Visual Meteorological Conditions
Raw dataKORD 271541Z 21012G23KT 8SM SCT012 16/13 A2938 RMK AO2 PK WND 19027/1502 T01560128 $
An error has occurred. This application may no longer respond until reloaded. Reload 🗙